createdAt,value
2018-05-04T00:00:21.536Z,18.40
2018-05-04T00:02:50.446Z,18.30
2018-05-04T00:05:19.379Z,18.30
2018-05-04T00:07:48.284Z,18.30
2018-05-04T00:10:17.167Z,18.30
2018-05-04T00:12:46.841Z,18.30
2018-05-04T00:15:15.762Z,18.20
2018-05-04T00:17:45.468Z,18.30
2018-05-04T00:20:14.349Z,18.20
2018-05-04T00:22:43.241Z,18.20
2018-05-04T00:25:12.148Z,18.10
2018-05-04T00:27:41.056Z,18.10
2018-05-04T00:30:09.994Z,18.10
2018-05-04T00:32:38.917Z,18.10
2018-05-04T00:35:08.592Z,18.10
2018-05-04T00:37:37.452Z,18.00
2018-05-04T00:40:06.432Z,18.10
2018-05-04T00:42:35.331Z,18.10
2018-05-04T00:45:04.234Z,18.00
2018-05-04T00:47:33.167Z,17.90
2018-05-04T00:50:02.087Z,17.80
2018-05-04T00:52:30.998Z,17.80
2018-05-04T00:54:59.891Z,17.70
2018-05-04T00:57:28.824Z,17.70
2018-05-04T00:59:58.183Z,17.60
2018-05-04T01:02:27.141Z,17.50
2018-05-04T01:04:56.813Z,17.50
2018-05-04T01:07:25.761Z,17.50
2018-05-04T01:09:54.653Z,17.50
2018-05-04T01:12:23.599Z,17.50
2018-05-04T01:14:52.443Z,17.40
2018-05-04T01:17:21.293Z,17.40
2018-05-04T01:19:51.819Z,17.40
2018-05-04T01:22:20.758Z,17.40
2018-05-04T01:24:50.390Z,17.40
2018-05-04T01:27:19.294Z,17.30
2018-05-04T01:29:48.254Z,17.30
2018-05-04T01:32:17.223Z,17.30
2018-05-04T01:34:46.093Z,17.30
2018-05-04T01:37:15.752Z,17.20
2018-05-04T01:39:44.694Z,17.20
2018-05-04T01:42:13.598Z,17.20
2018-05-04T01:44:42.518Z,17.10
2018-05-04T01:47:11.405Z,17.10
2018-05-04T01:49:40.319Z,17.10
2018-05-04T01:52:09.210Z,17.10
2018-05-04T01:54:38.231Z,17.10
2018-05-04T01:57:08.046Z,17.00
2018-05-04T01:59:36.980Z,17.00
2018-05-04T02:02:05.931Z,17.00
2018-05-04T02:04:35.616Z,17.00
2018-05-04T02:07:04.530Z,17.00
2018-05-04T02:09:34.229Z,17.00
2018-05-04T02:12:03.180Z,17.00
2018-05-04T02:14:32.095Z,17.00
2018-05-04T02:17:01.040Z,17.00
2018-05-04T02:19:30.098Z,16.90
2018-05-04T02:21:58.964Z,16.90
2018-05-04T02:24:27.849Z,16.90
2018-05-04T02:26:56.869Z,16.90
2018-05-04T02:29:28.333Z,16.90
2018-05-04T02:31:58.015Z,16.80
2018-05-04T02:34:26.925Z,16.80
2018-05-04T02:36:56.600Z,16.80
2018-05-04T02:39:26.288Z,16.80
2018-05-04T02:41:55.159Z,16.80
2018-05-04T02:44:24.043Z,16.80
2018-05-04T02:46:53.002Z,16.90
2018-05-04T02:49:21.914Z,16.90
2018-05-04T02:51:51.615Z,17.00
2018-05-04T02:54:21.269Z,17.00
2018-05-04T02:56:50.204Z,16.90
2018-05-04T02:59:19.105Z,17.00
2018-05-04T03:01:48.821Z,17.10
2018-05-04T03:04:18.752Z,17.10
2018-05-04T03:06:47.613Z,17.10
2018-05-04T03:09:17.353Z,17.10
2018-05-04T03:11:46.266Z,17.00
2018-05-04T03:14:15.189Z,17.00
2018-05-04T03:16:45.963Z,17.00
2018-05-04T03:19:14.832Z,17.10
2018-05-04T03:21:45.780Z,17.10
2018-05-04T03:24:15.505Z,17.10
2018-05-04T03:26:44.356Z,17.00
2018-05-04T03:29:13.283Z,17.10
2018-05-04T03:31:42.186Z,17.20
2018-05-04T03:34:11.052Z,17.20
2018-05-04T03:36:40.769Z,17.20
2018-05-04T03:39:09.621Z,17.20
2018-05-04T03:41:38.522Z,17.30
2018-05-04T03:44:07.405Z,17.30
2018-05-04T03:46:36.292Z,17.30
2018-05-04T03:49:05.201Z,17.40
2018-05-04T03:51:34.968Z,17.40
2018-05-04T03:54:03.861Z,17.30
2018-05-04T03:56:32.782Z,17.50
2018-05-04T03:59:19.394Z,17.50
2018-05-04T04:02:06.697Z,17.50
2018-05-04T04:04:36.021Z,17.50
2018-05-04T04:07:05.715Z,17.70
2018-05-04T04:09:34.631Z,17.60
2018-05-04T04:12:03.569Z,17.70
2018-05-04T04:14:32.491Z,17.80
2018-05-04T04:17:01.396Z,17.80
2018-05-04T04:19:30.272Z,17.90
2018-05-04T04:21:59.168Z,18.10
2018-05-04T04:24:28.049Z,18.20
2018-05-04T04:26:57.012Z,18.30
2018-05-04T04:29:25.929Z,18.40
2018-05-04T04:31:54.808Z,18.50
2018-05-04T04:34:23.768Z,18.90
2018-05-04T04:36:52.666Z,19.50
2018-05-04T04:39:21.598Z,19.90
2018-05-04T04:41:50.501Z,20.30
2018-05-04T04:44:20.183Z,20.70
2018-05-04T04:46:49.043Z,20.60
2018-05-04T04:49:18.250Z,21.00
2018-05-04T04:51:47.118Z,21.80
2018-05-04T04:54:15.998Z,22.60
2018-05-04T04:56:44.898Z,23.40
2018-05-04T04:59:13.820Z,23.90
2018-05-04T05:01:42.709Z,24.60
2018-05-04T05:04:11.605Z,25.30
2018-05-04T05:06:40.529Z,25.70
2018-05-04T05:09:10.205Z,26.60
2018-05-04T05:11:39.129Z,26.50
2018-05-04T05:14:08.806Z,27.30
2018-05-04T05:16:37.688Z,27.30
2018-05-04T05:19:06.622Z,27.60
2018-05-04T05:21:36.307Z,27.70
2018-05-04T05:24:05.211Z,27.60
2018-05-04T05:26:34.181Z,28.00
2018-05-04T05:29:03.103Z,28.40
2018-05-04T05:31:32.768Z,29.00
2018-05-04T05:34:01.786Z,28.90
2018-05-04T05:36:30.648Z,29.30
2018-05-04T05:38:59.565Z,29.40
2018-05-04T05:41:28.466Z,29.90
2018-05-04T05:43:57.380Z,29.90
2018-05-04T05:46:26.304Z,29.90
2018-05-04T05:48:55.178Z,30.10
2018-05-04T05:51:24.057Z,29.90
2018-05-04T05:53:52.975Z,30.30
2018-05-04T05:56:21.875Z,30.60
2018-05-04T05:58:50.800Z,30.70
2018-05-04T06:01:19.673Z,30.80
2018-05-04T06:03:48.651Z,31.40
2018-05-04T06:06:17.781Z,32.00
2018-05-04T06:08:49.060Z,31.80
2018-05-04T06:11:18.023Z,32.00
2018-05-04T06:13:47.730Z,32.50
2018-05-04T06:16:16.654Z,32.40
2018-05-04T06:18:45.607Z,32.70
2018-05-04T06:21:14.485Z,32.60
2018-05-04T06:23:43.387Z,33.00
2018-05-04T06:26:12.295Z,32.70
2018-05-04T06:28:47.243Z,33.20
2018-05-04T06:31:17.218Z,33.10
2018-05-04T06:33:55.293Z,33.70
2018-05-04T06:36:24.930Z,33.50
2018-05-04T06:38:55.740Z,33.80
2018-05-04T06:41:24.982Z,34.00
2018-05-04T06:44:12.708Z,34.30
2018-05-04T06:46:41.686Z,34.70
2018-05-04T06:49:10.572Z,35.30
2018-05-04T06:51:39.493Z,35.70
2018-05-04T06:54:09.161Z,35.70
2018-05-04T06:56:38.083Z,35.70
2018-05-04T06:59:07.185Z,36.00
2018-05-04T07:01:36.319Z,35.80
2018-05-04T07:04:06.053Z,35.10
2018-05-04T07:06:35.001Z,35.00
2018-05-04T07:09:04.130Z,34.90
2018-05-04T07:11:33.057Z,35.00
2018-05-04T07:14:01.934Z,34.90
2018-05-04T07:16:30.845Z,35.40
2018-05-04T07:19:00.598Z,36.00
2018-05-04T07:21:29.482Z,35.90
2018-05-04T07:23:58.451Z,36.10
2018-05-04T07:26:28.143Z,36.60
2018-05-04T07:28:57.816Z,36.60
2018-05-04T07:31:26.693Z,36.60
2018-05-04T07:33:55.647Z,37.20
2018-05-04T07:36:24.584Z,36.70
2018-05-04T07:38:53.508Z,36.70
2018-05-04T07:41:22.415Z,37.20
2018-05-04T07:43:52.064Z,36.50
2018-05-04T07:46:21.003Z,36.50
2018-05-04T07:48:50.690Z,37.10
2018-05-04T07:51:19.668Z,37.00
2018-05-04T07:53:48.644Z,37.30
2018-05-04T07:56:23.458Z,37.50
2018-05-04T07:58:52.358Z,37.00
2018-05-04T08:01:21.239Z,36.60
2018-05-04T08:03:50.154Z,36.40
2018-05-04T08:06:19.098Z,37.00
2018-05-04T08:08:48.768Z,38.10
2018-05-04T08:11:17.706Z,38.00
2018-05-04T08:13:47.403Z,37.90
2018-05-04T08:16:16.321Z,37.80
2018-05-04T08:18:45.314Z,37.70
2018-05-04T08:21:14.237Z,37.60
2018-05-04T08:23:43.170Z,37.50
2018-05-04T08:26:12.850Z,37.90
2018-05-04T08:28:41.748Z,37.90
2018-05-04T08:31:10.689Z,38.00
2018-05-04T08:33:39.830Z,38.00
2018-05-04T08:36:08.717Z,37.70
2018-05-04T08:38:37.636Z,38.00
2018-05-04T08:41:07.343Z,38.20
2018-05-04T08:43:38.922Z,38.10
2018-05-04T08:46:07.854Z,38.10
2018-05-04T08:48:36.760Z,38.00
2018-05-04T08:51:05.775Z,38.10
2018-05-04T08:53:34.622Z,37.60
2018-05-04T08:56:03.550Z,37.80
2018-05-04T08:58:32.466Z,37.70
2018-05-04T09:01:01.383Z,37.30
2018-05-04T09:03:30.274Z,37.00
2018-05-04T09:05:59.185Z,37.00
2018-05-04T09:08:28.060Z,37.10
2018-05-04T09:10:56.949Z,37.20
2018-05-04T09:13:26.146Z,37.00
2018-05-04T09:15:55.255Z,36.20
2018-05-04T09:18:24.475Z,35.90
2018-05-04T09:20:53.601Z,36.00
2018-05-04T09:23:22.461Z,36.20
2018-05-04T09:25:51.367Z,36.40
2018-05-04T09:28:21.041Z,35.60
2018-05-04T09:30:49.966Z,35.60
2018-05-04T09:33:19.635Z,35.30
2018-05-04T09:35:48.558Z,35.30
2018-05-04T09:38:17.448Z,35.40
2018-05-04T09:40:47.101Z,36.30
2018-05-04T09:43:16.782Z,36.60
2018-05-04T09:45:46.476Z,37.20
2018-05-04T09:48:15.695Z,37.20
2018-05-04T09:50:44.635Z,37.00
2018-05-04T09:53:13.528Z,37.10
2018-05-04T09:55:42.421Z,36.90
2018-05-04T09:58:11.307Z,37.20
2018-05-04T10:00:40.215Z,37.60
2018-05-04T10:03:09.121Z,37.20
2018-05-04T10:05:38.806Z,36.30
2018-05-04T10:08:07.707Z,36.20
2018-05-04T10:10:36.588Z,36.10
2018-05-04T10:13:05.482Z,36.10
2018-05-04T10:15:34.420Z,36.20
2018-05-04T10:18:03.361Z,36.50
2018-05-04T10:20:32.289Z,36.70
2018-05-04T10:23:01.984Z,36.00
2018-05-04T10:25:31.657Z,36.00
2018-05-04T10:28:00.800Z,36.00
2018-05-04T10:30:29.701Z,36.10
2018-05-04T10:32:58.593Z,36.10
2018-05-04T10:35:27.490Z,35.30
2018-05-04T10:37:56.385Z,34.70
2018-05-04T10:40:25.287Z,34.80
2018-05-04T10:42:54.208Z,35.10
2018-05-04T10:45:23.379Z,35.50
2018-05-04T10:47:52.312Z,36.00
2018-05-04T10:50:21.231Z,36.10
2018-05-04T10:52:50.169Z,36.60
2018-05-04T10:55:19.065Z,36.40
2018-05-04T10:57:48.168Z,36.50
2018-05-04T11:00:17.066Z,36.60
2018-05-04T11:02:45.943Z,36.60
2018-05-04T11:05:14.902Z,36.60
2018-05-04T11:07:43.915Z,36.80
2018-05-04T11:10:12.814Z,37.10
2018-05-04T11:12:41.747Z,37.30
2018-05-04T11:15:10.655Z,37.20
2018-05-04T11:17:40.685Z,37.00
2018-05-04T11:20:09.602Z,37.00
2018-05-04T11:22:38.510Z,36.90
2018-05-04T11:25:07.378Z,36.60
2018-05-04T11:27:36.587Z,36.40
2018-05-04T11:30:05.519Z,36.40
2018-05-04T11:32:34.407Z,36.20
2018-05-04T11:35:03.318Z,36.30
2018-05-04T11:37:32.293Z,36.50
2018-05-04T11:40:01.177Z,36.30
2018-05-04T11:42:30.147Z,36.10
2018-05-04T11:44:59.043Z,36.10
2018-05-04T11:47:27.966Z,36.30
2018-05-04T11:49:56.899Z,36.40
2018-05-04T11:52:25.778Z,35.90
2018-05-04T11:54:54.746Z,35.60
2018-05-04T11:57:23.722Z,35.60
2018-05-04T11:59:52.674Z,35.90
2018-05-04T12:02:21.587Z,35.90
2018-05-04T12:04:51.350Z,36.10
2018-05-04T12:07:20.252Z,36.00
2018-05-04T12:09:49.124Z,36.10
2018-05-04T12:12:18.051Z,35.70
2018-05-04T12:14:46.904Z,34.80
2018-05-04T12:17:15.804Z,34.10
2018-05-04T12:19:44.846Z,34.10
2018-05-04T12:22:13.763Z,34.30
2018-05-04T12:24:44.342Z,35.20
2018-05-04T12:27:13.321Z,35.20
2018-05-04T12:29:42.210Z,35.40
2018-05-04T12:32:11.131Z,35.60
2018-05-04T12:34:40.052Z,35.90
2018-05-04T12:37:08.955Z,36.10
2018-05-04T12:39:37.871Z,35.70
2018-05-04T12:42:06.786Z,35.30
2018-05-04T12:44:35.710Z,35.30
2018-05-04T12:47:04.608Z,35.10
2018-05-04T12:49:34.245Z,35.20
2018-05-04T12:52:03.114Z,35.10
2018-05-04T12:54:32.095Z,35.20
2018-05-04T12:57:00.978Z,34.80
2018-05-04T12:59:29.865Z,34.50
2018-05-04T13:01:59.548Z,34.10
2018-05-04T13:04:28.495Z,34.00
2018-05-04T13:06:57.410Z,34.20
2018-05-04T13:09:26.300Z,34.00
2018-05-04T13:11:55.286Z,34.00
2018-05-04T13:14:24.201Z,34.00
2018-05-04T13:16:53.094Z,34.20
2018-05-04T13:19:22.007Z,34.00
2018-05-04T13:21:51.730Z,34.00
2018-05-04T13:24:20.666Z,34.00
2018-05-04T13:26:49.610Z,34.20
2018-05-04T13:29:19.244Z,34.20
2018-05-04T13:31:48.167Z,34.10
2018-05-04T13:34:17.194Z,34.20
2018-05-04T13:36:46.845Z,33.80
2018-05-04T13:39:15.787Z,33.80
2018-05-04T13:41:45.435Z,33.50
2018-05-04T13:44:14.291Z,33.50
2018-05-04T13:46:43.250Z,33.10
2018-05-04T13:49:12.154Z,33.10
2018-05-04T13:51:41.150Z,33.00
2018-05-04T13:54:09.969Z,32.60
2018-05-04T13:56:38.880Z,32.40
2018-05-04T13:59:07.884Z,32.10
2018-05-04T14:01:36.823Z,31.70
2018-05-04T14:04:05.712Z,31.60
2018-05-04T14:06:35.382Z,31.20
2018-05-04T14:09:04.305Z,31.20
2018-05-04T14:11:34.023Z,30.50
2018-05-04T14:14:03.717Z,30.20
2018-05-04T14:16:32.662Z,30.10
2018-05-04T14:19:01.537Z,30.10
2018-05-04T14:21:30.446Z,29.90
2018-05-04T14:23:59.398Z,29.80
2018-05-04T14:26:29.053Z,29.60
2018-05-04T14:28:57.950Z,29.50
2018-05-04T14:31:26.901Z,29.50
2018-05-04T14:33:55.774Z,29.30
2018-05-04T14:36:24.645Z,29.10
2018-05-04T14:38:59.152Z,29.00
2018-05-04T14:41:28.066Z,29.00
2018-05-04T14:43:57.036Z,29.00
2018-05-04T14:46:25.975Z,28.90
2018-05-04T14:48:54.906Z,28.90
2018-05-04T14:51:23.811Z,28.90
2018-05-04T14:53:52.718Z,28.90
2018-05-04T14:56:21.617Z,28.90
2018-05-04T14:58:50.497Z,28.90
2018-05-04T15:01:19.408Z,28.90
2018-05-04T15:03:49.091Z,29.00
2018-05-04T15:06:17.974Z,29.00
2018-05-04T15:08:46.923Z,28.90
2018-05-04T15:11:15.846Z,28.60
2018-05-04T15:13:44.750Z,28.40
2018-05-04T15:16:13.650Z,28.40
2018-05-04T15:18:42.528Z,28.40
2018-05-04T15:21:11.447Z,28.20
2018-05-04T15:23:41.140Z,28.30
2018-05-04T15:26:10.149Z,28.20
2018-05-04T15:28:39.040Z,28.20
2018-05-04T15:31:08.741Z,28.10
2018-05-04T15:33:37.607Z,28.10
2018-05-04T15:36:06.530Z,28.00
2018-05-04T15:38:35.442Z,27.90
2018-05-04T15:41:04.373Z,27.80
2018-05-04T15:43:33.319Z,27.80
2018-05-04T15:46:02.232Z,27.80
2018-05-04T15:48:36.753Z,27.80
2018-05-04T15:51:11.225Z,27.60
2018-05-04T15:53:40.123Z,27.60
2018-05-04T15:56:09.801Z,27.40
2018-05-04T15:58:38.704Z,27.40
2018-05-04T16:01:07.633Z,27.40
2018-05-04T16:03:36.582Z,27.30
2018-05-04T16:06:05.541Z,27.20
2018-05-04T16:08:34.436Z,27.10
2018-05-04T16:11:04.255Z,26.90
2018-05-04T16:13:33.176Z,26.80
2018-05-04T16:16:02.063Z,26.80
2018-05-04T16:18:30.976Z,26.80
2018-05-04T16:21:00.664Z,26.70
2018-05-04T16:23:29.612Z,26.60
2018-05-04T16:25:58.586Z,26.60
2018-05-04T16:28:27.753Z,26.50
2018-05-04T16:30:56.622Z,26.40
2018-05-04T16:33:25.547Z,26.10
2018-05-04T16:35:55.197Z,25.90
2018-05-04T16:38:24.110Z,25.90
2018-05-04T16:40:53.078Z,26.00
2018-05-04T16:43:21.991Z,26.00
2018-05-04T16:45:50.881Z,25.90
2018-05-04T16:48:26.138Z,25.90
2018-05-04T16:50:55.123Z,25.70
2018-05-04T16:53:24.001Z,25.60
2018-05-04T16:55:52.920Z,25.40
2018-05-04T16:58:21.847Z,25.30
2018-05-04T17:00:50.759Z,25.30
2018-05-04T17:03:20.759Z,25.20
2018-05-04T17:05:49.687Z,25.00
2018-05-04T17:08:18.668Z,25.00
2018-05-04T17:10:47.792Z,25.00
2018-05-04T17:13:16.821Z,24.90
2018-05-04T17:15:45.868Z,24.90
2018-05-04T17:18:15.575Z,24.70
2018-05-04T17:20:44.549Z,24.70
2018-05-04T17:23:13.466Z,24.60
2018-05-04T17:25:42.398Z,24.50
2018-05-04T17:28:11.357Z,24.50
2018-05-04T17:30:40.478Z,24.40
2018-05-04T17:33:09.564Z,24.30
2018-05-04T17:35:39.254Z,24.00
2018-05-04T17:38:08.164Z,24.00
2018-05-04T17:40:37.853Z,23.70
2018-05-04T17:43:07.860Z,23.70
2018-05-04T17:45:36.831Z,23.70
2018-05-04T17:48:05.771Z,23.60
2018-05-04T17:50:35.433Z,23.50
2018-05-04T17:53:04.360Z,23.40
2018-05-04T17:55:34.022Z,23.20
2018-05-04T17:58:03.017Z,23.20
2018-05-04T18:00:31.949Z,23.20
2018-05-04T18:03:00.955Z,23.20
2018-05-04T18:05:29.819Z,23.00
2018-05-04T18:07:58.699Z,23.00
2018-05-04T18:10:27.575Z,23.00
2018-05-04T18:12:56.497Z,22.90
2018-05-04T18:15:25.446Z,22.80
2018-05-04T18:17:54.444Z,22.70
2018-05-04T18:20:23.393Z,22.70
2018-05-04T18:22:53.071Z,22.60
2018-05-04T18:25:21.989Z,22.50
2018-05-04T18:27:56.524Z,22.60
2018-05-04T18:30:26.209Z,22.50
2018-05-04T18:32:55.361Z,22.40
2018-05-04T18:35:24.252Z,22.50
2018-05-04T18:37:53.209Z,22.50
2018-05-04T18:40:22.883Z,22.40
2018-05-04T18:42:51.786Z,22.40
2018-05-04T18:45:20.735Z,22.30
2018-05-04T18:47:49.607Z,22.30
2018-05-04T18:50:18.588Z,22.20
2018-05-04T18:52:47.520Z,22.20
2018-05-04T18:55:16.451Z,22.20
2018-05-04T18:57:46.138Z,22.20
2018-05-04T19:00:15.075Z,22.10
2018-05-04T19:05:48.572Z,22.10
2018-05-04T19:08:18.215Z,22.00
2018-05-04T19:10:47.197Z,21.90
2018-05-04T19:13:16.167Z,22.00
2018-05-04T19:15:45.895Z,21.90
2018-05-04T19:18:14.826Z,21.90
2018-05-04T19:20:43.813Z,21.90
2018-05-04T19:23:12.685Z,21.80
2018-05-04T19:25:41.609Z,21.70
2018-05-04T19:28:11.512Z,21.70
2018-05-04T19:30:40.377Z,21.60
2018-05-04T19:33:10.226Z,21.50
2018-05-04T19:35:39.399Z,21.50
2018-05-04T19:38:08.293Z,21.50
2018-05-04T19:40:37.201Z,21.50
2018-05-04T19:43:06.119Z,21.50
2018-05-04T19:45:35.041Z,21.40
2018-05-04T19:48:03.971Z,21.40
2018-05-04T19:50:32.871Z,21.40
2018-05-04T19:53:01.789Z,21.40
2018-05-04T19:55:31.488Z,21.30
2018-05-04T19:58:00.407Z,21.30
2018-05-04T20:00:29.369Z,21.30
2018-05-04T20:02:59.060Z,21.30
2018-05-04T20:05:27.973Z,21.20
2018-05-04T20:07:56.883Z,21.10
2018-05-04T20:10:25.838Z,21.10
2018-05-04T20:12:54.762Z,21.10
2018-05-04T20:15:23.656Z,21.00
2018-05-04T20:17:53.366Z,20.90
2018-05-04T20:20:22.253Z,20.90
2018-05-04T20:22:51.260Z,20.90
2018-05-04T20:25:20.201Z,20.90
2018-05-04T20:27:49.139Z,20.80
2018-05-04T20:30:18.063Z,20.80
2018-05-04T20:32:46.966Z,20.80
2018-05-04T20:35:15.963Z,20.70
2018-05-04T20:37:44.994Z,20.70
2018-05-04T20:40:13.822Z,20.60
2018-05-04T20:42:42.807Z,20.60
2018-05-04T20:45:11.697Z,20.60
2018-05-04T20:47:40.667Z,20.60
2018-05-04T20:50:09.644Z,20.60
2018-05-04T20:52:38.535Z,20.50
2018-05-04T20:55:08.204Z,20.40
2018-05-04T20:57:37.132Z,20.40
2018-05-04T21:00:06.803Z,20.40
2018-05-04T21:02:35.685Z,20.30
2018-05-04T21:05:04.655Z,20.40
2018-05-04T21:07:33.541Z,20.30
2018-05-04T21:10:02.471Z,20.30
2018-05-04T21:12:31.414Z,20.20
2018-05-04T21:15:00.347Z,20.20
2018-05-04T21:17:29.270Z,20.10
2018-05-04T21:19:58.250Z,20.10
2018-05-04T21:22:27.884Z,20.00
2018-05-04T21:24:56.791Z,19.90
2018-05-04T21:27:25.689Z,19.90
2018-05-04T21:29:54.616Z,19.90
2018-05-04T21:32:23.521Z,19.90
2018-05-04T21:34:52.962Z,19.90
2018-05-04T21:37:21.950Z,19.90
2018-05-04T21:39:50.866Z,19.80
2018-05-04T21:42:19.809Z,19.80
2018-05-04T21:44:48.719Z,19.80
2018-05-04T21:47:17.657Z,19.80
2018-05-04T21:49:46.553Z,19.80
2018-05-04T21:52:15.454Z,19.70
2018-05-04T21:54:44.367Z,19.70
2018-05-04T21:57:13.323Z,19.70
2018-05-04T21:59:42.188Z,19.60
2018-05-04T22:02:12.526Z,19.60
2018-05-04T22:04:41.503Z,19.60
2018-05-04T22:07:11.128Z,19.50
2018-05-04T22:09:40.014Z,19.40
2018-05-04T22:12:09.280Z,19.50
2018-05-04T22:14:38.980Z,19.40
2018-05-04T22:17:08.683Z,19.40
2018-05-04T22:19:38.419Z,19.40
2018-05-04T22:22:07.350Z,19.30
2018-05-04T22:24:36.265Z,19.30
2018-05-04T22:27:05.182Z,19.30
2018-05-04T22:29:34.488Z,19.30
2018-05-04T22:32:03.416Z,19.20
2018-05-04T22:34:33.032Z,19.20
2018-05-04T22:37:01.971Z,19.20
2018-05-04T22:39:31.011Z,19.10
2018-05-04T22:41:59.937Z,19.00
2018-05-04T22:44:28.841Z,19.00
2018-05-04T22:46:57.697Z,19.00
2018-05-04T22:49:26.671Z,18.90
2018-05-04T22:51:55.610Z,18.90
2018-05-04T22:54:25.260Z,18.90
2018-05-04T22:56:54.144Z,18.90
2018-05-04T22:59:23.032Z,18.90
2018-05-04T23:01:51.936Z,18.90
2018-05-04T23:04:20.918Z,18.80
2018-05-04T23:06:49.840Z,18.80
2018-05-04T23:09:18.767Z,18.80
2018-05-04T23:11:48.420Z,18.80
2018-05-04T23:14:17.341Z,18.70
2018-05-04T23:16:46.275Z,18.80
2018-05-04T23:19:15.172Z,18.80
2018-05-04T23:21:44.078Z,18.70
2018-05-04T23:24:13.006Z,18.70
2018-05-04T23:26:41.942Z,18.70
2018-05-04T23:29:10.832Z,18.70
2018-05-04T23:31:39.738Z,18.60
2018-05-04T23:34:08.684Z,18.50
2018-05-04T23:36:37.615Z,18.60
2018-05-04T23:39:06.530Z,18.60
2018-05-04T23:41:35.482Z,18.60
2018-05-04T23:44:04.419Z,18.60
2018-05-04T23:46:33.342Z,18.60
2018-05-04T23:49:03.032Z,18.60
2018-05-04T23:51:31.967Z,18.50
2018-05-04T23:54:00.837Z,18.50
2018-05-04T23:56:30.498Z,18.50
2018-05-04T23:58:59.378Z,18.40
